Time;durP1;ratioP1;P1;durP2;ratioP2;P2;SDS_P1;SDS_P2;PMS_P1;PMS_P2;Temp;Humidity;BMP_temperature;BMP_pressure;BME280_temperature;BME280_humidity;BME280_pressure;Samples;Min_cycle;Max_cycle;Signal;HPM_P1;HPM_P2
2022/01/24 00:00:03;;;;;;;4.07;2.17;;;;;;;;;;5029372;28;20452;-80
2022/01/24 00:02:30;;;;;;;2.43;1.63;;;;;;;;;;5031338;28;20030;-79
2022/01/24 00:04:57;;;;;;;2.13;1.43;;;;;;;;;;5020729;28;20029;-79
2022/01/24 00:07:24;;;;;;;3.43;1.97;;;;;;;;;;5030383;28;20033;-78
2022/01/24 00:09:53;;;;;;;2.57;1.80;;;;;;;;;;5019717;28;20026;-76
2022/01/24 00:15:04;;;;;;;2.95;1.70;;;;;;;;;;5019088;28;20041;-78
2022/01/24 00:17:40;;;;;;;2.93;1.40;;;;;;;;;;5030681;28;20132;-77
2022/01/24 00:28:08;;;;;;;4.40;1.80;;;;;;;;;;5021695;28;20757;-79
2022/01/24 00:30:36;;;;;;;2.20;1.50;;;;;;;;;;5028144;28;20466;-79
2022/01/24 00:33:02;;;;;;;3.77;2.17;;;;;;;;;;5030937;28;20080;-78
2022/01/24 00:35:28;;;;;;;1.80;1.30;;;;;;;;;;5020937;28;20120;-79
2022/01/24 00:37:59;;;;;;;3.37;1.50;;;;;;;;;;5034398;28;20118;-80
2022/01/24 00:40:27;;;;;;;3.17;1.73;;;;;;;;;;5040579;28;20036;-78
2022/01/24 00:42:58;;;;;;;4.73;1.77;;;;;;;;;;5034900;28;20043;-77
2022/01/24 00:45:51;;;;;;;4.13;1.90;;;;;;;;;;5022917;28;20030;-79
2022/01/24 00:48:37;;;;;;;3.83;2.07;;;;;;;;;;5037744;28;20034;-77
2022/01/24 00:54:03;;;;;;;3.77;1.87;;;;;;;;;;5024081;28;20068;-75
2022/01/24 00:56:29;;;;;;;5.37;2.20;;;;;;;;;;5032753;28;20112;-76
2022/01/24 00:58:55;;;;;;;2.60;2.07;;;;;;;;;;5023419;28;20109;-81
2022/01/24 01:01:21;;;;;;;4.83;2.00;;;;;;;;;;5031290;28;20087;-79
2022/01/24 01:03:47;;;;;;;2.10;1.77;;;;;;;;;;5039186;28;20037;-78
2022/01/24 01:06:13;;;;;;;2.70;1.57;;;;;;;;;;5033147;28;20030;-81
2022/01/24 01:19:43;;;;;;;3.77;2.13;;;;;;;;;;5022754;28;20056;-79
2022/01/24 01:22:09;;;;;;;2.20;1.40;;;;;;;;;;5033847;28;20037;-78
2022/01/24 01:24:46;;;;;;;3.90;1.87;;;;;;;;;;5032444;28;20037;-79
2022/01/24 01:27:22;;;;;;;3.70;1.77;;;;;;;;;;5032962;28;20773;-79
2022/01/24 01:29:55;;;;;;;3.77;2.00;;;;;;;;;;5032945;28;20300;-77
2022/01/24 01:56:04;;;;;;;3.43;2.23;;;;;;;;;;5022327;28;20279;-80
2022/01/24 01:58:30;;;;;;;3.23;1.60;;;;;;;;;;5031346;28;20124;-81
2022/01/24 02:00:58;;;;;;;1.73;1.27;;;;;;;;;;5037789;28;20265;-77
2022/01/24 02:03:24;;;;;;;5.47;2.37;;;;;;;;;;5020949;28;20840;-76
2022/01/24 02:05:50;;;;;;;3.27;1.33;;;;;;;;;;5021403;28;20272;-80
2022/01/24 02:08:17;;;;;;;3.60;1.63;;;;;;;;;;5143321;23;20320;-79
2022/01/24 02:10:44;;;;;;;2.30;1.50;;;;;;;;;;5020779;28;20299;-81
2022/01/24 02:13:11;;;;;;;5.13;2.00;;;;;;;;;;5019302;28;22039;-78
2022/01/24 02:18:54;;;;;;;2.93;1.50;;;;;;;;;;5021911;28;20334;-75
2022/01/24 02:25:59;;;;;;;2.10;1.40;;;;;;;;;;5019024;28;20281;-75
2022/01/24 02:28:31;;;;;;;2.60;1.53;;;;;;;;;;5033339;28;20287;-79
2022/01/24 02:33:23;;;;;;;3.33;1.60;;;;;;;;;;5021050;28;20283;-80
2022/01/24 02:35:49;;;;;;;2.50;1.73;;;;;;;;;;5020767;28;20060;-77
2022/01/24 02:38:45;;;;;;;2.23;1.53;;;;;;;;;;5033172;28;20292;-77
2022/01/24 02:49:30;;;;;;;1.93;1.20;;;;;;;;;;5020044;28;20287;-80
2022/01/24 02:52:14;;;;;;;2.10;1.50;;;;;;;;;;5033485;28;20538;-79
2022/01/24 02:54:42;;;;;;;4.57;1.53;;;;;;;;;;5035408;28;20608;-79
2022/01/24 02:57:09;;;;;;;2.73;1.87;;;;;;;;;;5020126;28;20288;-80
2022/01/24 02:59:36;;;;;;;3.23;1.50;;;;;;;;;;5019509;28;20280;-79
2022/01/24 03:02:04;;;;;;;2.00;1.70;;;;;;;;;;5018843;28;20335;-78
2022/01/24 03:04:30;;;;;;;2.47;1.13;;;;;;;;;;5031856;28;20520;-79
2022/01/24 03:06:59;;;;;;;4.20;1.70;;;;;;;;;;5034488;28;20360;-79
2022/01/24 03:09:25;;;;;;;2.63;1.40;;;;;;;;;;5032886;28;20288;-78
2022/01/24 03:12:01;;;;;;;2.50;1.40;;;;;;;;;;5023881;28;20277;-81
2022/01/24 03:14:30;;;;;;;2.50;1.40;;;;;;;;;;5034976;28;20771;-80
2022/01/24 03:16:56;;;;;;;4.53;1.50;;;;;;;;;;5033450;28;20287;-76
2022/01/24 03:19:23;;;;;;;3.07;1.67;;;;;;;;;;5020569;28;20288;-79
2022/01/24 03:21:49;;;;;;;2.87;1.47;;;;;;;;;;5018396;28;21694;-80
2022/01/24 03:24:17;;;;;;;2.10;1.33;;;;;;;;;;5019650;28;20323;-78
2022/01/24 03:26:44;;;;;;;4.67;1.73;;;;;;;;;;5033239;28;20372;-80
2022/01/24 03:29:10;;;;;;;5.50;1.57;;;;;;;;;;5023974;28;20283;-80
2022/01/24 03:31:36;;;;;;;1.80;1.27;;;;;;;;;;5021760;28;20276;-77
2022/01/24 03:34:02;;;;;;;3.03;1.33;;;;;;;;;;5023646;28;20732;-80
2022/01/24 03:36:29;;;;;;;1.90;1.10;;;;;;;;;;5034856;28;20037;-80
2022/01/24 03:38:55;;;;;;;2.60;1.27;;;;;;;;;;5018782;28;20315;-80
2022/01/24 03:41:25;;;;;;;1.73;1.40;;;;;;;;;;5033216;28;20284;-77
2022/01/24 03:43:51;;;;;;;1.50;1.23;;;;;;;;;;5020878;28;20041;-79
2022/01/24 03:48:50;;;;;;;2.53;1.37;;;;;;;;;;5019953;28;20111;-79
2022/01/24 03:51:17;;;;;;;2.27;1.23;;;;;;;;;;5016214;28;20358;-80
2022/01/24 03:53:44;;;;;;;2.47;1.37;;;;;;;;;;5020638;28;20048;-77
2022/01/24 03:56:10;;;;;;;3.03;1.60;;;;;;;;;;5032593;28;21027;-77
2022/01/24 03:58:36;;;;;;;2.77;1.50;;;;;;;;;;5023960;28;20280;-81
2022/01/24 04:01:04;;;;;;;5.80;1.43;;;;;;;;;;5034184;28;20037;-81
2022/01/24 04:03:30;;;;;;;4.43;1.17;;;;;;;;;;5031234;28;20382;-77
2022/01/24 04:05:56;;;;;;;2.50;1.70;;;;;;;;;;5033250;28;20158;-79
2022/01/24 04:08:24;;;;;;;2.03;1.13;;;;;;;;;;5018424;28;20502;-77
2022/01/24 04:10:54;;;;;;;2.50;1.33;;;;;;;;;;5017746;28;20144;-79
2022/01/24 04:23:41;;;;;;;1.90;1.20;;;;;;;;;;5023352;28;20377;-80
2022/01/24 04:26:08;;;;;;;5.23;1.50;;;;;;;;;;5021925;28;20040;-79
2022/01/24 04:28:34;;;;;;;0.80;0.73;;;;;;;;;;5024630;28;20071;-80
2022/01/24 04:31:00;;;;;;;2.73;1.50;;;;;;;;;;5022321;28;20053;-79
2022/01/24 04:33:29;;;;;;;4.30;2.57;;;;;;;;;;5037313;28;20461;-79
2022/01/24 04:35:55;;;;;;;2.77;1.53;;;;;;;;;;5024660;28;20030;-83
2022/01/24 04:38:21;;;;;;;3.17;1.30;;;;;;;;;;5024476;28;20029;-79
2022/01/24 04:40:50;;;;;;;1.67;1.40;;;;;;;;;;5023668;28;20401;-78
2022/01/24 04:43:55;;;;;;;2.90;1.70;;;;;;;;;;5022120;28;20358;-81
2022/01/24 04:56:37;;;;;;;1.80;1.20;;;;;;;;;;5021523;28;20045;-79
2022/01/24 04:59:03;;;;;;;1.53;1.00;;;;;;;;;;5024097;28;20061;-77
2022/01/24 05:01:29;;;;;;;1.17;1.07;;;;;;;;;;5026078;28;20026;-80
2022/01/24 05:03:55;;;;;;;2.97;1.27;;;;;;;;;;5027224;28;20040;-80
2022/01/24 05:06:21;;;;;;;3.07;1.53;;;;;;;;;;5035291;28;20038;-77
2022/01/24 05:08:47;;;;;;;4.63;1.47;;;;;;;;;;5019779;28;20033;-77
2022/01/24 05:11:21;;;;;;;1.43;0.90;;;;;;;;;;5035872;28;20043;-78
2022/01/24 05:24:39;;;;;;;5.33;1.97;;;;;;;;;;5023029;28;20291;-78
2022/01/24 05:27:05;;;;;;;2.07;1.50;;;;;;;;;;5020286;28;20029;-78
2022/01/24 05:29:31;;;;;;;2.40;1.70;;;;;;;;;;5023342;28;20363;-78
2022/01/24 05:31:58;;;;;;;4.50;1.63;;;;;;;;;;5023128;28;20279;-79
2022/01/24 05:34:24;;;;;;;4.37;1.90;;;;;;;;;;5019822;28;20756;-80
2022/01/24 05:36:52;;;;;;;3.17;1.33;;;;;;;;;;5035878;28;20303;-77
2022/01/24 05:39:20;;;;;;;3.90;1.70;;;;;;;;;;5021285;28;20322;-79
2022/01/24 05:41:47;;;;;;;2.90;1.80;;;;;;;;;;5022266;28;20363;-79
2022/01/24 05:44:13;;;;;;;4.03;2.53;;;;;;;;;;5033590;28;20384;-78
2022/01/24 05:46:41;;;;;;;3.83;2.13;;;;;;;;;;5023068;28;20363;-80
2022/01/24 05:49:07;;;;;;;3.87;1.93;;;;;;;;;;5021850;28;20128;-79
2022/01/24 05:51:33;;;;;;;2.93;1.73;;;;;;;;;;5037301;28;20284;-76
2022/01/24 05:53:59;;;;;;;3.70;2.40;;;;;;;;;;5026673;28;20350;-78
2022/01/24 05:56:25;;;;;;;3.37;2.23;;;;;;;;;;5036458;28;20048;-79
2022/01/24 05:58:51;;;;;;;3.50;2.33;;;;;;;;;;5035790;28;20284;-78
2022/01/24 06:01:17;;;;;;;2.97;2.30;;;;;;;;;;5033656;28;20044;-80
2022/01/24 06:03:45;;;;;;;4.90;2.40;;;;;;;;;;5021403;28;20183;-78
2022/01/24 06:06:11;;;;;;;2.97;1.53;;;;;;;;;;5037247;28;20034;-78
2022/01/24 06:08:39;;;;;;;3.40;2.20;;;;;;;;;;5037243;28;20371;-77
2022/01/24 06:11:05;;;;;;;4.97;2.73;;;;;;;;;;5023906;28;20038;-75
2022/01/24 06:13:34;;;;;;;4.73;2.40;;;;;;;;;;5022033;28;21211;-78
2022/01/24 06:16:02;;;;;;;4.50;2.13;;;;;;;;;;5020532;28;20044;-78
2022/01/24 06:18:28;;;;;;;3.47;2.20;;;;;;;;;;5025089;28;20277;-80
2022/01/24 06:20:57;;;;;;;4.33;2.00;;;;;;;;;;5034948;28;20305;-77
2022/01/24 06:23:25;;;;;;;3.70;1.90;;;;;;;;;;5035961;28;20375;-79
2022/01/24 06:25:51;;;;;;;4.67;2.40;;;;;;;;;;5021754;28;20410;-78
2022/01/24 06:28:17;;;;;;;3.50;1.93;;;;;;;;;;5021902;28;20295;-80
2022/01/24 06:30:45;;;;;;;4.27;2.43;;;;;;;;;;5021353;28;20732;-78
2022/01/24 06:33:11;;;;;;;5.10;2.20;;;;;;;;;;5022618;28;20095;-80
2022/01/24 06:35:38;;;;;;;5.67;2.97;;;;;;;;;;5034051;28;20353;-76
2022/01/24 06:38:04;;;;;;;4.33;2.30;;;;;;;;;;5021461;28;20358;-77
2022/01/24 06:40:33;;;;;;;11.33;2.60;;;;;;;;;;5035076;28;20288;-75
2022/01/24 06:42:59;;;;;;;5.23;2.93;;;;;;;;;;5020661;28;20025;-77
2022/01/24 06:45:25;;;;;;;3.77;2.13;;;;;;;;;;5033996;28;20295;-78
2022/01/24 06:47:52;;;;;;;3.97;2.50;;;;;;;;;;5022600;28;20272;-79
2022/01/24 06:50:18;;;;;;;5.00;2.70;;;;;;;;;;5034885;28;20346;-80
2022/01/24 06:52:45;;;;;;;8.00;2.53;;;;;;;;;;5034787;28;20748;-77
2022/01/24 06:55:11;;;;;;;7.93;2.57;;;;;;;;;;5019666;28;20037;-77
2022/01/24 06:57:38;;;;;;;3.37;2.17;;;;;;;;;;5035070;28;20280;-78
2022/01/24 07:00:04;;;;;;;6.47;2.70;;;;;;;;;;5034456;28;20272;-80
2022/01/24 07:02:30;;;;;;;3.43;2.00;;;;;;;;;;5018851;28;20276;-78
2022/01/24 07:04:56;;;;;;;8.27;2.37;;;;;;;;;;5033831;28;20295;-76
2022/01/24 07:07:22;;;;;;;5.00;2.27;;;;;;;;;;5034112;28;20030;-76
2022/01/24 07:09:49;;;;;;;6.27;2.20;;;;;;;;;;5020935;28;20290;-80
2022/01/24 07:12:15;;;;;;;3.07;2.10;;;;;;;;;;5034952;28;20048;-77
2022/01/24 07:14:42;;;;;;;8.67;2.80;;;;;;;;;;5036078;28;20280;-79
2022/01/24 07:19:41;;;;;;;4.03;2.60;;;;;;;;;;5020216;28;21013;-79
2022/01/24 07:22:07;;;;;;;4.03;2.27;;;;;;;;;;5033632;28;20033;-79
2022/01/24 07:24:33;;;;;;;3.87;2.20;;;;;;;;;;5031870;28;20380;-79
2022/01/24 07:26:59;;;;;;;3.13;2.03;;;;;;;;;;5018829;28;20361;-80
2022/01/24 07:29:27;;;;;;;5.50;2.77;;;;;;;;;;5019214;28;20363;-79
2022/01/24 07:31:54;;;;;;;7.60;2.67;;;;;;;;;;5032360;28;20033;-74
2022/01/24 07:34:20;;;;;;;2.73;2.07;;;;;;;;;;5032141;28;20403;-79
2022/01/24 07:36:46;;;;;;;4.10;2.60;;;;;;;;;;5020052;28;21007;-79
2022/01/24 07:39:13;;;;;;;5.33;2.50;;;;;;;;;;5019377;28;20291;-78
2022/01/24 07:41:47;;;;;;;5.37;3.00;;;;;;;;;;5019907;28;20383;-79
2022/01/24 07:44:13;;;;;;;4.97;2.67;;;;;;;;;;5019639;28;20323;-78
2022/01/24 07:46:40;;;;;;;4.23;2.83;;;;;;;;;;5022451;28;20361;-78
2022/01/24 07:49:08;;;;;;;7.10;2.70;;;;;;;;;;5027729;28;20812;-77
2022/01/24 07:51:34;;;;;;;5.30;2.93;;;;;;;;;;5027604;28;20282;-77
2022/01/24 07:54:01;;;;;;;4.53;3.33;;;;;;;;;;5037413;28;20287;-80
2022/01/24 07:56:29;;;;;;;4.87;3.00;;;;;;;;;;5021761;28;20278;-79
2022/01/24 07:58:55;;;;;;;5.60;3.20;;;;;;;;;;5037511;28;20279;-76
2022/01/24 08:01:21;;;;;;;4.87;3.10;;;;;;;;;;5027169;28;20269;-80
2022/01/24 08:03:47;;;;;;;6.30;3.43;;;;;;;;;;5022726;28;20280;-76
2022/01/24 08:06:13;;;;;;;8.03;4.17;;;;;;;;;;5035193;28;20296;-78
2022/01/24 08:08:42;;;;;;;6.13;3.40;;;;;;;;;;5036783;28;20288;-80
2022/01/24 08:11:08;;;;;;;5.77;3.47;;;;;;;;;;5023090;28;20276;-76
2022/01/24 08:13:36;;;;;;;5.83;3.63;;;;;;;;;;5036603;28;20276;-79
2022/01/24 08:16:02;;;;;;;6.17;3.53;;;;;;;;;;5025812;28;20426;-78
2022/01/24 08:18:28;;;;;;;8.50;3.27;;;;;;;;;;5022843;28;20283;-80
2022/01/24 08:20:59;;;;;;;6.93;3.43;;;;;;;;;;5022503;28;20284;-81
2022/01/24 08:23:25;;;;;;;7.37;3.77;;;;;;;;;;5034644;28;20049;-78
2022/01/24 08:25:51;;;;;;;10.50;3.90;;;;;;;;;;5035890;28;20297;-81
2022/01/24 08:28:19;;;;;;;7.37;4.10;;;;;;;;;;5033566;28;20034;-80
2022/01/24 08:30:45;;;;;;;6.53;4.23;;;;;;;;;;5034746;28;20029;-80
2022/01/24 08:33:11;;;;;;;6.47;3.37;;;;;;;;;;5022138;28;20409;-77
2022/01/24 08:35:38;;;;;;;5.20;3.50;;;;;;;;;;5022515;28;20048;-79
2022/01/24 08:38:08;;;;;;;5.10;3.37;;;;;;;;;;5020407;28;20104;-79
2022/01/24 08:40:37;;;;;;;5.60;3.50;;;;;;;;;;5034468;28;20276;-78
2022/01/24 08:43:07;;;;;;;6.60;3.30;;;;;;;;;;5021681;28;20454;-79
2022/01/24 08:45:45;;;;;;;9.37;3.47;;;;;;;;;;5035902;28;20399;-79
2022/01/24 08:48:14;;;;;;;9.93;4.90;;;;;;;;;;5034792;28;20410;-78
2022/01/24 08:50:41;;;;;;;10.13;4.63;;;;;;;;;;5021348;28;20758;-78
2022/01/24 08:53:11;;;;;;;10.17;3.80;;;;;;;;;;5025903;28;20298;-77
2022/01/24 08:55:38;;;;;;;7.63;4.00;;;;;;;;;;5022792;28;20280;-79
2022/01/24 08:58:05;;;;;;;10.43;3.47;;;;;;;;;;5033522;28;20037;-79
2022/01/24 09:00:32;;;;;;;8.33;3.87;;;;;;;;;;5026690;28;20121;-79
2022/01/24 09:02:58;;;;;;;10.17;2.97;;;;;;;;;;5035489;28;20091;-78
2022/01/24 09:05:24;;;;;;;4.00;3.00;;;;;;;;;;5020273;28;20292;-80
2022/01/24 09:07:51;;;;;;;4.17;2.63;;;;;;;;;;5035157;28;20276;-82
2022/01/24 09:10:24;;;;;;;5.10;3.03;;;;;;;;;;5018822;28;20030;-78
2022/01/24 09:12:50;;;;;;;5.07;3.15;;;;;;;;;;5019391;28;20022;-77
2022/01/24 09:15:16;;;;;;;4.43;3.03;;;;;;;;;;5027030;28;20045;-78
2022/01/24 09:17:43;;;;;;;4.60;2.70;;;;;;;;;;5035878;28;20079;-79
2022/01/24 09:20:10;;;;;;;4.03;2.90;;;;;;;;;;5035155;28;20078;-79
2022/01/24 09:22:36;;;;;;;4.00;2.67;;;;;;;;;;5017069;28;20033;-80
2022/01/24 09:25:03;;;;;;;3.60;2.77;;;;;;;;;;5034250;28;20372;-77
2022/01/24 09:27:30;;;;;;;7.17;3.83;;;;;;;;;;5021794;28;20029;-78
2022/01/24 09:29:56;;;;;;;4.87;3.03;;;;;;;;;;5021599;28;20026;-78
2022/01/24 09:32:22;;;;;;;4.80;3.27;;;;;;;;;;5022113;28;20029;-83
2022/01/24 09:34:48;;;;;;;5.70;3.40;;;;;;;;;;5034616;28;20095;-79
2022/01/24 09:37:14;;;;;;;5.23;2.97;;;;;;;;;;5034049;28;20366;-77
2022/01/24 09:39:40;;;;;;;3.70;2.90;;;;;;;;;;5022059;28;20041;-79
2022/01/24 09:42:06;;;;;;;5.60;2.67;;;;;;;;;;5034541;28;20028;-78
2022/01/24 09:44:33;;;;;;;3.43;2.63;;;;;;;;;;5020896;28;20114;-78
2022/01/24 09:46:59;;;;;;;4.47;2.23;;;;;;;;;;5025266;28;20041;-78
2022/01/24 09:49:25;;;;;;;3.63;2.63;;;;;;;;;;5016781;28;20037;-81
2022/01/24 09:51:51;;;;;;;2.50;2.30;;;;;;;;;;5020367;28;20052;-78
2022/01/24 09:54:17;;;;;;;3.37;2.20;;;;;;;;;;5018252;28;20044;-80
2022/01/24 09:56:43;;;;;;;2.43;2.23;;;;;;;;;;5021459;28;20045;-77
2022/01/24 09:59:09;;;;;;;2.80;1.97;;;;;;;;;;5035273;28;20404;-77
2022/01/24 10:01:35;;;;;;;3.60;2.30;;;;;;;;;;5024313;28;20525;-81
2022/01/24 10:04:12;;;;;;;2.63;1.97;;;;;;;;;;5019003;28;20129;-80
2022/01/24 10:06:57;;;;;;;2.37;1.80;;;;;;;;;;5021033;28;20057;-80
2022/01/24 10:09:29;;;;;;;3.93;2.93;;;;;;;;;;5032589;28;20770;-80
2022/01/24 10:12:05;;;;;;;3.92;2.70;;;;;;;;;;5035790;28;20050;-77
2022/01/24 10:17:26;;;;;;;4.37;2.00;;;;;;;;;;5020357;28;20103;-81
2022/01/24 10:19:52;;;;;;;2.70;2.13;;;;;;;;;;5034075;28;20037;-78
2022/01/24 10:22:21;;;;;;;3.60;1.87;;;;;;;;;;5020793;28;20099;-79
2022/01/24 10:24:56;;;;;;;2.70;1.50;;;;;;;;;;5020143;28;20057;-81
2022/01/24 10:27:24;;;;;;;6.47;1.40;;;;;;;;;;5035245;28;20041;-78
2022/01/24 10:29:59;;;;;;;3.00;2.40;;;;;;;;;;5024625;28;20025;-77
2022/01/24 10:32:31;;;;;;;2.30;1.83;;;;;;;;;;5033472;28;20022;-79
2022/01/24 10:35:17;;;;;;;3.42;2.13;;;;;;;;;;5022487;28;20041;-81
2022/01/24 10:37:44;;;;;;;1.83;1.50;;;;;;;;;;5033340;28;20050;-79
2022/01/24 10:40:20;;;;;;;1.53;1.33;;;;;;;;;;5032801;28;20033;-79
2022/01/24 10:42:52;;;;;;;2.47;2.07;;;;;;;;;;5024194;28;20073;-79
2022/01/24 10:45:21;;;;;;;3.38;2.28;;;;;;;;;;5018242;28;20032;-80
2022/01/24 10:47:50;;;;;;;1.93;1.70;;;;;;;;;;5020655;28;20017;-80
2022/01/24 10:50:28;;;;;;;4.47;2.20;;;;;;;;;;5023854;28;20080;-79
2022/01/24 10:52:54;;;;;;;2.77;2.23;;;;;;;;;;5033263;28;20033;-76
2022/01/24 10:55:22;;;;;;;2.57;2.00;;;;;;;;;;5019149;28;20044;-77
2022/01/24 10:57:49;;;;;;;2.13;1.93;;;;;;;;;;5031813;28;20094;-77
2022/01/24 11:00:25;;;;;;;7.80;3.03;;;;;;;;;;5019905;28;20099;-78
2022/01/24 11:02:54;;;;;;;3.90;2.47;;;;;;;;;;5019755;28;20037;-78
2022/01/24 11:05:22;;;;;;;2.53;2.30;;;;;;;;;;5034552;28;20052;-77
2022/01/24 11:07:53;;;;;;;2.03;1.70;;;;;;;;;;5033026;28;20049;-79
2022/01/24 11:10:19;;;;;;;2.83;1.87;;;;;;;;;;5017435;28;20025;-81
2022/01/24 11:12:45;;;;;;;3.30;2.53;;;;;;;;;;5033843;28;20040;-76
2022/01/24 11:15:11;;;;;;;2.17;1.97;;;;;;;;;;5032014;28;20036;-79
2022/01/24 11:17:38;;;;;;;3.63;2.67;;;;;;;;;;5033547;28;20033;-81
2022/01/24 11:20:05;;;;;;;2.37;2.10;;;;;;;;;;5019638;28;20025;-77
2022/01/24 11:22:34;;;;;;;2.10;1.70;;;;;;;;;;5033999;28;20048;-81
2022/01/24 11:25:04;;;;;;;3.50;1.77;;;;;;;;;;5018795;28;20033;-79
2022/01/24 11:27:31;;;;;;;4.83;2.57;;;;;;;;;;5023768;28;20029;-77
2022/01/24 11:29:59;;;;;;;1.67;1.50;;;;;;;;;;5019292;28;20037;-79
2022/01/24 11:32:32;;;;;;;2.20;1.57;;;;;;;;;;5031660;28;20045;-78
2022/01/24 11:34:58;;;;;;;2.67;1.70;;;;;;;;;;5019016;28;20371;-78
2022/01/24 11:37:34;;;;;;;2.90;1.63;;;;;;;;;;5019837;28;20037;-78
2022/01/24 11:40:04;;;;;;;2.17;1.40;;;;;;;;;;5031204;28;20067;-77
2022/01/24 11:42:32;;;;;;;2.20;1.53;;;;;;;;;;5018719;28;20078;-80
2022/01/24 11:45:04;;;;;;;2.60;2.40;;;;;;;;;;5017738;28;20791;-78
2022/01/24 11:47:31;;;;;;;3.08;1.88;;;;;;;;;;5030582;28;20029;-80
2022/01/24 11:49:57;;;;;;;1.77;1.47;;;;;;;;;;5024042;28;20030;-77
2022/01/24 11:52:31;;;;;;;1.70;1.20;;;;;;;;;;5031791;28;20034;-76
2022/01/24 11:55:15;;;;;;;2.90;1.63;;;;;;;;;;5031870;28;20037;-78
2022/01/24 11:57:50;;;;;;;1.93;1.50;;;;;;;;;;5023567;28;20576;-78
2022/01/24 12:00:21;;;;;;;3.20;1.40;;;;;;;;;;5032021;28;20072;-79
2022/01/24 12:02:54;;;;;;;2.67;1.50;;;;;;;;;;5024045;28;20981;-77
2022/01/24 12:05:21;;;;;;;4.13;1.95;;;;;;;;;;5017429;28;20111;-81
2022/01/24 12:07:47;;;;;;;3.43;1.03;;;;;;;;;;5018092;28;20029;-79
2022/01/24 12:10:22;;;;;;;1.50;1.37;;;;;;;;;;5032262;28;20032;-79
2022/01/24 12:13:01;;;;;;;1.63;1.53;;;;;;;;;;5032316;28;20034;-80
2022/01/24 12:15:39;;;;;;;1.90;1.70;;;;;;;;;;5032611;28;20041;-80
2022/01/24 12:18:06;;;;;;;2.00;1.13;;;;;;;;;;5017543;28;20029;-79
2022/01/24 12:20:34;;;;;;;1.30;1.00;;;;;;;;;;5015877;28;20115;-76
2022/01/24 12:23:20;;;;;;;1.50;1.30;;;;;;;;;;5024689;28;20034;-79
2022/01/24 12:25:54;;;;;;;1.50;1.40;;;;;;;;;;5031893;28;20533;-75
2022/01/24 12:28:21;;;;;;;1.83;1.47;;;;;;;;;;5032857;28;20045;-78
2022/01/24 12:31:20;;;;;;;1.30;1.10;;;;;;;;;;5019025;28;20394;-77
2022/01/24 12:33:55;;;;;;;1.70;1.60;;;;;;;;;;5025441;28;20180;-80
2022/01/24 12:36:46;;;;;;;4.40;1.30;;;;;;;;;;5020193;28;20033;-81
2022/01/24 12:39:20;;;;;;;1.03;0.93;;;;;;;;;;5035468;28;20034;-80
2022/01/24 12:41:49;;;;;;;1.77;1.20;;;;;;;;;;5037468;28;20033;-81
2022/01/24 12:47:01;;;;;;;1.80;1.33;;;;;;;;;;5021938;28;20048;-79
2022/01/24 12:49:30;;;;;;;5.47;1.70;;;;;;;;;;5020159;28;20615;-80
2022/01/24 12:52:00;;;;;;;2.13;1.63;;;;;;;;;;5035058;28;20064;-79
2022/01/24 12:54:33;;;;;;;1.93;1.50;;;;;;;;;;5021432;28;20124;-80
2022/01/24 12:57:10;;;;;;;3.67;2.00;;;;;;;;;;5035470;28;20064;-78
2022/01/24 12:59:37;;;;;;;2.30;1.53;;;;;;;;;;5036257;28;20439;-78
2022/01/24 13:02:05;;;;;;;2.70;1.70;;;;;;;;;;5035613;28;20030;-77
2022/01/24 13:04:38;;;;;;;2.00;1.50;;;;;;;;;;5020934;28;20029;-81
2022/01/24 13:07:07;;;;;;;3.40;1.47;;;;;;;;;;5019111;28;20100;-81
2022/01/24 13:09:37;;;;;;;1.83;1.53;;;;;;;;;;5017651;28;20442;-79
2022/01/24 13:12:05;;;;;;;3.87;1.87;;;;;;;;;;5022687;28;20033;-78
2022/01/24 13:22:57;;;;;;;4.13;1.33;;;;;;;;;;5020800;28;20472;-79
2022/01/24 13:25:30;;;;;;;3.17;1.57;;;;;;;;;;5034868;28;20452;-80
2022/01/24 13:27:57;;;;;;;2.27;2.00;;;;;;;;;;5020652;28;20060;-80
2022/01/24 13:30:24;;;;;;;1.93;1.50;;;;;;;;;;5020244;28;20029;-79
2022/01/24 13:32:58;;;;;;;3.03;1.50;;;;;;;;;;5033475;28;20030;-79
2022/01/24 13:35:27;;;;;;;2.40;1.80;;;;;;;;;;5019475;28;20041;-81
2022/01/24 13:37:58;;;;;;;3.00;1.57;;;;;;;;;;5020382;28;20036;-78
2022/01/24 13:40:38;;;;;;;3.60;2.30;;;;;;;;;;5025123;28;20029;-81
2022/01/24 13:43:05;;;;;;;3.53;2.50;;;;;;;;;;5034359;28;20461;-80
2022/01/24 13:45:35;;;;;;;2.80;2.33;;;;;;;;;;5019969;28;20048;-80
2022/01/24 13:48:02;;;;;;;8.53;4.60;;;;;;;;;;5034640;28;20045;-79
2022/01/24 13:50:28;;;;;;;2.90;2.17;;;;;;;;;;5033674;28;20030;-80
2022/01/24 13:52:55;;;;;;;1.70;1.43;;;;;;;;;;5019698;28;20029;-80
2022/01/24 13:55:22;;;;;;;4.37;2.10;;;;;;;;;;5032292;28;20041;-78
2022/01/24 13:57:50;;;;;;;2.40;1.47;;;;;;;;;;5019758;28;20125;-79
2022/01/24 14:00:21;;;;;;;3.43;2.03;;;;;;;;;;5020000;28;20048;-79
2022/01/24 14:02:47;;;;;;;3.77;2.00;;;;;;;;;;5020562;28;20045;-78
2022/01/24 14:05:13;;;;;;;2.03;1.77;;;;;;;;;;5034651;28;20044;-81
2022/01/24 14:07:42;;;;;;;4.40;2.57;;;;;;;;;;5019048;28;20046;-77
2022/01/24 14:10:13;;;;;;;2.33;1.80;;;;;;;;;;5019683;28;20041;-76
2022/01/24 14:12:48;;;;;;;2.40;2.20;;;;;;;;;;5019619;28;20044;-81
2022/01/24 14:18:21;;;;;;;5.37;1.90;;;;;;;;;;5021013;28;20029;-81
2022/01/24 14:20:39;;;;;;;8.37;2.30;;;;;;;;;;5019317;28;20366;-77
2022/01/24 14:23:05;;;;;;;5.00;1.93;;;;;;;;;;5025929;28;20064;-80
2022/01/24 14:25:32;;;;;;;3.37;2.77;;;;;;;;;;5034115;28;20451;-78
2022/01/24 14:27:59;;;;;;;2.70;2.00;;;;;;;;;;5018766;28;20029;-81
2022/01/24 14:30:26;;;;;;;3.73;2.73;;;;;;;;;;5024986;28;20071;-77
2022/01/24 14:33:09;;;;;;;2.53;2.27;;;;;;;;;;5033955;28;20030;-78
2022/01/24 14:35:38;;;;;;;3.07;2.20;;;;;;;;;;5033699;28;20465;-80
2022/01/24 14:38:07;;;;;;;2.80;2.40;;;;;;;;;;5018982;28;20096;-78
2022/01/24 14:40:37;;;;;;;3.47;2.80;;;;;;;;;;5020903;28;20038;-79
2022/01/24 14:45:48;;;;;;;3.73;2.27;;;;;;;;;;5018640;28;21683;-80
2022/01/24 14:48:14;;;;;;;2.83;2.30;;;;;;;;;;5034197;28;20022;-78
2022/01/24 14:50:42;;;;;;;3.87;2.80;;;;;;;;;;5033651;28;20065;-79
2022/01/24 14:53:08;;;;;;;4.07;1.97;;;;;;;;;;5019411;28;20030;-78
2022/01/24 14:55:35;;;;;;;2.80;2.07;;;;;;;;;;5021343;28;20044;-79
2022/01/24 14:58:01;;;;;;;3.40;2.10;;;;;;;;;;5019830;28;20063;-80
2022/01/24 15:00:27;;;;;;;7.27;3.17;;;;;;;;;;5018727;28;20048;-79
2022/01/24 15:02:55;;;;;;;5.57;2.73;;;;;;;;;;5032341;28;20044;-78
2022/01/24 15:05:21;;;;;;;5.53;3.10;;;;;;;;;;5031740;28;20120;-78
2022/01/24 15:07:47;;;;;;;3.53;3.20;;;;;;;;;;5037499;28;20125;-76
2022/01/24 15:10:14;;;;;;;4.10;2.90;;;;;;;;;;5020722;28;20694;-80
2022/01/24 15:12:47;;;;;;;4.70;2.03;;;;;;;;;;5023863;28;20041;-79
2022/01/24 15:15:16;;;;;;;3.20;2.75;;;;;;;;;;5016516;28;20028;-80
2022/01/24 15:26:06;;;;;;;4.13;2.70;;;;;;;;;;5019118;28;20044;-79
2022/01/24 15:28:32;;;;;;;3.57;2.73;;;;;;;;;;5019731;28;20130;-80
2022/01/24 15:30:58;;;;;;;3.10;2.50;;;;;;;;;;5020639;28;20434;-80
2022/01/24 15:33:24;;;;;;;4.53;2.87;;;;;;;;;;5018337;28;20090;-77
2022/01/24 15:35:52;;;;;;;2.93;2.63;;;;;;;;;;5019879;28;20060;-79
2022/01/24 15:38:18;;;;;;;4.07;2.93;;;;;;;;;;5032396;28;20048;-79
2022/01/24 15:40:44;;;;;;;3.20;2.50;;;;;;;;;;5020525;28;20171;-80
2022/01/24 15:43:38;;;;;;;3.03;2.60;;;;;;;;;;5018100;28;20116;-80
2022/01/24 15:48:27;;;;;;;4.23;2.90;;;;;;;;;;5018410;28;20030;-78
2022/01/24 15:50:53;;;;;;;6.00;3.23;;;;;;;;;;5018401;28;20109;-80
2022/01/24 15:53:21;;;;;;;4.80;2.80;;;;;;;;;;5030838;28;20871;-79
2022/01/24 15:58:49;;;;;;;3.67;2.83;;;;;;;;;;5035144;28;20462;-79
2022/01/24 16:01:15;;;;;;;3.50;2.67;;;;;;;;;;5024138;28;20053;-80
2022/01/24 16:03:41;;;;;;;4.07;2.60;;;;;;;;;;5018373;28;20367;-78
2022/01/24 16:06:08;;;;;;;3.60;3.13;;;;;;;;;;5018456;28;20066;-80
2022/01/24 16:08:34;;;;;;;5.27;3.33;;;;;;;;;;5036070;28;20441;-78
2022/01/24 16:11:01;;;;;;;4.77;2.80;;;;;;;;;;5034749;28;20061;-79
2022/01/24 16:13:29;;;;;;;4.40;3.00;;;;;;;;;;5022567;28;20026;-80
2022/01/24 16:15:55;;;;;;;3.97;3.23;;;;;;;;;;5020814;28;20045;-78
2022/01/24 16:18:21;;;;;;;5.93;3.80;;;;;;;;;;5020601;28;20034;-80
2022/01/24 16:23:44;;;;;;;3.67;2.90;;;;;;;;;;5022644;28;20050;-78
2022/01/24 16:26:10;;;;;;;5.47;3.50;;;;;;;;;;5035114;28;20092;-76
2022/01/24 16:28:36;;;;;;;3.43;3.00;;;;;;;;;;5022729;28;20036;-80
2022/01/24 16:31:07;;;;;;;6.27;3.10;;;;;;;;;;5036640;28;20029;-77
2022/01/24 16:33:36;;;;;;;4.77;3.63;;;;;;;;;;5023024;28;20121;-78
2022/01/24 16:36:05;;;;;;;3.60;3.23;;;;;;;;;;5035658;28;20187;-78
2022/01/24 16:38:31;;;;;;;3.10;2.80;;;;;;;;;;5036928;28;20034;-80
2022/01/24 16:41:04;;;;;;;6.40;3.30;;;;;;;;;;5037566;28;20064;-78
2022/01/24 16:48:44;;;;;;;4.80;3.53;;;;;;;;;;5029123;28;20065;-79
2022/01/24 16:51:11;;;;;;;5.33;3.70;;;;;;;;;;5021780;28;20049;-79
2022/01/24 16:53:40;;;;;;;6.90;4.10;;;;;;;;;;5021060;28;20172;-80
2022/01/24 16:56:06;;;;;;;5.03;4.47;;;;;;;;;;5020221;28;20045;-81
2022/01/24 16:58:32;;;;;;;4.30;3.70;;;;;;;;;;5021543;28;20159;-80
2022/01/24 17:00:59;;;;;;;4.67;4.03;;;;;;;;;;5034844;28;20057;-77
2022/01/24 17:03:25;;;;;;;6.57;4.80;;;;;;;;;;5020102;28;20095;-78
2022/01/24 17:05:56;;;;;;;5.70;4.27;;;;;;;;;;5025501;28;20044;-80
2022/01/24 17:08:22;;;;;;;7.30;4.13;;;;;;;;;;5020633;28;20117;-78
2022/01/24 17:10:49;;;;;;;8.20;4.07;;;;;;;;;;5035908;28;20416;-77
2022/01/24 17:13:17;;;;;;;5.73;4.53;;;;;;;;;;5026784;28;20056;-78
2022/01/24 17:15:50;;;;;;;11.43;5.00;;;;;;;;;;5027688;28;20519;-78